createdAt,value
2023-04-16T00:00:09.597Z,6.65
2023-04-16T00:00:20.991Z,7.60
2023-04-16T00:00:32.409Z,7.45
2023-04-16T00:00:43.794Z,5.65
2023-04-16T00:00:55.209Z,5.20
2023-04-16T00:01:06.854Z,5.80
2023-04-16T00:01:18.297Z,5.95
2023-04-16T00:01:29.695Z,7.20
2023-04-16T00:01:41.124Z,7.72
2023-04-16T00:01:52.696Z,8.00
2023-04-16T00:02:04.412Z,6.93
2023-04-16T00:02:16.095Z,7.10
2023-04-16T00:02:27.753Z,7.20
2023-04-16T00:02:39.462Z,7.03
2023-04-16T00:02:51.234Z,7.80
2023-04-16T00:03:03.024Z,9.07
2023-04-16T00:03:15.325Z,9.65
2023-04-16T00:03:27.212Z,9.00
2023-04-16T00:03:39.169Z,7.18
2023-04-16T00:03:50.995Z,7.93
2023-04-16T00:04:03.049Z,7.75
2023-04-16T00:04:15.148Z,8.75
2023-04-16T00:04:26.639Z,8.75
2023-04-16T00:04:38.259Z,6.75
2023-04-16T00:04:49.805Z,10.15
2023-04-16T00:05:01.377Z,9.63
2023-04-16T00:05:14.551Z,9.48
2023-04-16T00:05:25.976Z,8.35
2023-04-16T00:05:37.452Z,7.45
2023-04-16T00:05:48.900Z,5.88
2023-04-16T00:06:00.420Z,5.97
2023-04-16T00:06:11.922Z,6.20
2023-04-16T00:06:23.366Z,6.95
2023-04-16T00:06:34.778Z,7.47
2023-04-16T00:06:46.183Z,7.72
2023-04-16T00:06:57.662Z,7.45
2023-04-16T00:07:09.134Z,6.40
2023-04-16T00:07:20.488Z,5.15
2023-04-16T00:07:31.933Z,5.85
2023-04-16T00:07:44.510Z,5.97
2023-04-16T00:07:55.997Z,8.25
2023-04-16T00:08:08.000Z,8.07
2023-04-16T00:08:19.454Z,7.57
2023-04-16T00:08:30.958Z,8.32
2023-04-16T00:08:42.416Z,10.40
2023-04-16T00:08:53.985Z,9.73
2023-04-16T00:09:05.422Z,9.52
2023-04-16T00:09:16.934Z,7.85
2023-04-16T00:09:28.406Z,9.63
2023-04-16T00:09:39.766Z,9.02
2023-04-16T00:09:51.451Z,8.18
2023-04-16T00:10:02.895Z,6.63
2023-04-16T00:10:14.370Z,8.00
2023-04-16T00:10:25.757Z,8.52
2023-04-16T00:10:37.287Z,9.00
2023-04-16T00:10:48.662Z,8.20
2023-04-16T00:11:00.051Z,8.57
2023-04-16T00:11:11.664Z,7.43
2023-04-16T00:11:23.242Z,6.72
2023-04-16T00:11:34.594Z,6.82
2023-04-16T00:11:46.026Z,6.97
2023-04-16T00:11:57.384Z,6.75
2023-04-16T00:12:08.854Z,7.20
2023-04-16T00:12:20.294Z,7.90
2023-04-16T00:12:31.652Z,7.47
2023-04-16T00:12:43.104Z,7.05
2023-04-16T00:12:55.048Z,5.95
2023-04-16T00:13:06.735Z,7.07
2023-04-16T00:13:18.220Z,7.18
2023-04-16T00:13:29.737Z,5.95
2023-04-16T00:13:41.172Z,6.38
2023-04-16T00:13:52.631Z,7.28
2023-04-16T00:14:04.100Z,7.67
2023-04-16T00:14:15.604Z,7.93
2023-04-16T00:14:28.069Z,7.78
2023-04-16T00:14:39.394Z,8.27
2023-04-16T00:14:50.795Z,8.75
2023-04-16T00:15:02.481Z,8.48
2023-04-16T00:15:14.176Z,7.90
2023-04-16T00:15:25.700Z,7.30
2023-04-16T00:15:37.157Z,5.78
2023-04-16T00:15:48.605Z,5.85
2023-04-16T00:16:00.211Z,6.45
2023-04-16T00:16:11.692Z,8.50
2023-04-16T00:16:23.257Z,10.48
2023-04-16T00:16:34.831Z,8.77
2023-04-16T00:16:46.413Z,7.60
2023-04-16T00:16:57.998Z,6.97
2023-04-16T00:17:12.461Z,6.70
2023-04-16T00:17:23.981Z,5.25
2023-04-16T00:17:35.439Z,5.65
2023-04-16T00:17:46.952Z,6.22
2023-04-16T00:17:58.555Z,6.78
2023-04-16T00:18:09.977Z,7.95
2023-04-16T00:18:21.387Z,8.07
2023-04-16T00:18:32.730Z,7.85
2023-04-16T00:18:44.154Z,7.03
2023-04-16T00:18:55.576Z,7.13
2023-04-16T00:19:07.223Z,7.53
2023-04-16T00:19:18.741Z,6.63
2023-04-16T00:19:30.144Z,6.03
2023-04-16T00:19:41.570Z,5.95
2023-04-16T00:19:53.019Z,6.13
2023-04-16T00:20:05.081Z,6.50
2023-04-16T00:20:16.692Z,7.00
2023-04-16T00:20:28.113Z,6.38
2023-04-16T00:20:39.614Z,7.97
2023-04-16T00:20:53.818Z,8.82
2023-04-16T00:21:05.374Z,10.05
2023-04-16T00:21:16.783Z,7.93
2023-04-16T00:21:28.188Z,6.93
2023-04-16T00:21:39.573Z,6.68
2023-04-16T00:21:51.006Z,6.93
2023-04-16T00:22:02.476Z,7.50
2023-04-16T00:22:13.844Z,6.55
2023-04-16T00:22:25.293Z,6.40
2023-04-16T00:22:36.869Z,6.22
2023-04-16T00:22:48.303Z,7.65
2023-04-16T00:22:59.717Z,7.25
2023-04-16T00:23:11.327Z,6.72
2023-04-16T00:23:22.917Z,7.28
2023-04-16T00:23:34.358Z,7.85
2023-04-16T00:23:45.786Z,8.27
2023-04-16T00:23:57.173Z,6.63
2023-04-16T00:24:08.779Z,6.55
2023-04-16T00:24:20.082Z,7.43
2023-04-16T00:24:31.460Z,7.75
2023-04-16T00:24:42.869Z,8.18
2023-04-16T00:24:54.409Z,8.50
2023-04-16T00:25:06.090Z,8.05
2023-04-16T00:25:17.499Z,7.65
2023-04-16T00:25:28.925Z,6.65
2023-04-16T00:25:40.358Z,7.07
2023-04-16T00:25:51.889Z,7.35
2023-04-16T00:26:03.653Z,7.25
2023-04-16T00:26:15.007Z,6.97
2023-04-16T00:26:26.488Z,6.70
2023-04-16T00:26:38.000Z,6.75
2023-04-16T00:26:49.396Z,9.40
2023-04-16T00:27:00.763Z,10.77
2023-04-16T00:27:12.229Z,12.55
2023-04-16T00:27:23.660Z,10.85
2023-04-16T00:27:35.095Z,9.90
2023-04-16T00:27:46.539Z,8.73
2023-04-16T00:27:57.964Z,9.60
2023-04-16T00:28:11.009Z,8.73
2023-04-16T00:28:23.639Z,8.57
2023-04-16T00:28:35.096Z,8.20
2023-04-16T00:28:46.562Z,8.60
2023-04-16T00:28:57.980Z,9.32
2023-04-16T00:29:09.663Z,8.68
2023-04-16T00:29:21.373Z,8.50
2023-04-16T00:29:32.947Z,8.45
2023-04-16T00:29:44.331Z,10.85
2023-04-16T00:29:55.859Z,13.38
2023-04-16T00:30:07.867Z,11.35
2023-04-16T00:30:19.331Z,7.25
2023-04-16T00:30:30.755Z,7.13
2023-04-16T00:30:42.232Z,6.90
2023-04-16T00:30:56.195Z,7.38
2023-04-16T00:31:07.737Z,9.00
2023-04-16T00:31:26.812Z,8.07
2023-04-16T00:31:38.447Z,8.82
2023-04-16T00:31:49.864Z,10.73
2023-04-16T00:32:01.394Z,10.85
2023-04-16T00:32:12.734Z,10.05
2023-04-16T00:32:24.210Z,9.02
2023-04-16T00:32:35.664Z,10.48
2023-04-16T00:32:47.219Z,9.93
2023-04-16T00:32:58.791Z,8.40
2023-04-16T00:33:10.271Z,7.55
2023-04-16T00:33:21.758Z,7.35
2023-04-16T00:33:33.128Z,8.80
2023-04-16T00:33:44.570Z,9.82
2023-04-16T00:33:56.481Z,8.95
2023-04-16T00:34:07.911Z,8.10
2023-04-16T00:34:19.358Z,7.05
2023-04-16T00:34:30.764Z,7.35
2023-04-16T00:34:42.116Z,6.80
2023-04-16T00:34:53.718Z,5.72
2023-04-16T00:35:05.638Z,6.00
2023-04-16T00:35:17.198Z,6.60
2023-04-16T00:35:28.680Z,7.60
2023-04-16T00:35:40.167Z,7.22
2023-04-16T00:35:51.569Z,6.75
2023-04-16T00:36:03.254Z,6.70
2023-04-16T00:36:14.665Z,7.72
2023-04-16T00:36:27.654Z,7.43
2023-04-16T00:36:39.114Z,6.93
2023-04-16T00:36:50.510Z,8.00
2023-04-16T00:37:01.921Z,7.60
2023-04-16T00:37:13.322Z,5.70
2023-04-16T00:37:24.750Z,6.03
2023-04-16T00:37:36.205Z,5.88
2023-04-16T00:37:47.645Z,7.13
2023-04-16T00:37:59.106Z,7.40
2023-04-16T00:38:10.482Z,6.38
2023-04-16T00:38:21.901Z,5.72
2023-04-16T00:38:33.330Z,6.43
2023-04-16T00:38:44.703Z,6.07
2023-04-16T00:38:57.152Z,5.60
2023-04-16T00:39:08.807Z,5.55
2023-04-16T00:39:20.470Z,6.85
2023-04-16T00:39:31.853Z,7.63
2023-04-16T00:39:43.208Z,8.68
2023-04-16T00:39:54.593Z,8.25
2023-04-16T00:40:06.770Z,8.50
2023-04-16T00:40:18.290Z,7.93
2023-04-16T00:40:29.941Z,7.78
2023-04-16T00:40:41.425Z,6.47
2023-04-16T00:40:52.872Z,5.57
2023-04-16T00:41:04.448Z,7.45
2023-04-16T00:41:15.901Z,7.72
2023-04-16T00:41:27.380Z,7.60
2023-04-16T00:41:38.861Z,6.63
2023-04-16T00:41:50.224Z,7.07
2023-04-16T00:42:01.584Z,7.18
2023-04-16T00:42:13.035Z,8.02
2023-04-16T00:42:24.484Z,7.35
2023-04-16T00:42:35.980Z,6.80
2023-04-16T00:42:47.514Z,5.45
2023-04-16T00:42:58.937Z,6.07
2023-04-16T00:43:10.304Z,6.15
2023-04-16T00:43:27.873Z,6.95
2023-04-16T00:43:39.310Z,7.82
2023-04-16T00:43:50.816Z,7.63
2023-04-16T00:44:02.268Z,6.32
2023-04-16T00:44:13.748Z,5.65
2023-04-16T00:44:25.221Z,5.32
2023-04-16T00:44:36.662Z,6.25
2023-04-16T00:44:48.096Z,6.68
2023-04-16T00:44:59.496Z,7.00
2023-04-16T00:45:11.541Z,8.20
2023-04-16T00:45:22.964Z,8.52
2023-04-16T00:45:34.807Z,7.60
2023-04-16T00:45:46.294Z,6.03
2023-04-16T00:46:00.634Z,5.10
2023-04-16T00:46:12.627Z,5.45
2023-04-16T00:46:25.065Z,5.88
2023-04-16T00:46:37.551Z,5.75
2023-04-16T00:46:49.202Z,6.25
2023-04-16T00:47:01.276Z,6.03
2023-04-16T00:47:12.826Z,7.25
2023-04-16T00:47:24.399Z,8.68
2023-04-16T00:47:35.962Z,8.70
2023-04-16T00:47:47.613Z,6.03
2023-04-16T00:48:00.744Z,5.80
2023-04-16T00:48:12.205Z,5.57
2023-04-16T00:48:23.744Z,5.22
2023-04-16T00:48:37.801Z,6.85
2023-04-16T00:48:51.102Z,7.70
2023-04-16T00:49:03.853Z,7.63
2023-04-16T00:49:15.388Z,6.80
2023-04-16T00:49:27.469Z,7.07
2023-04-16T00:49:39.387Z,6.47
2023-04-16T00:49:50.888Z,5.78
2023-04-16T00:50:03.592Z,5.95
2023-04-16T00:50:15.028Z,5.82
2023-04-16T00:50:26.596Z,7.55
2023-04-16T00:50:37.992Z,6.95
2023-04-16T00:50:49.432Z,6.70
2023-04-16T00:51:00.896Z,6.47
2023-04-16T00:51:12.351Z,6.72
2023-04-16T00:51:23.952Z,8.00
2023-04-16T00:51:36.008Z,8.48
2023-04-16T00:51:47.933Z,9.18
2023-04-16T00:51:59.837Z,8.48
2023-04-16T00:52:12.066Z,7.10
2023-04-16T00:52:23.663Z,5.80
2023-04-16T00:52:35.320Z,6.47
2023-04-16T00:52:48.481Z,6.47
2023-04-16T00:53:01.163Z,7.50
2023-04-16T00:53:14.774Z,7.80
2023-04-16T00:53:26.353Z,10.05
2023-04-16T00:53:38.381Z,9.63
2023-04-16T00:53:50.313Z,9.00
2023-04-16T00:54:03.101Z,9.07
2023-04-16T00:54:14.584Z,8.77
2023-04-16T00:54:26.087Z,8.00
2023-04-16T00:54:37.572Z,6.90
2023-04-16T00:54:49.323Z,6.38
2023-04-16T00:55:00.904Z,6.28
2023-04-16T00:55:12.317Z,6.85
2023-04-16T00:55:24.131Z,8.20
2023-04-16T00:55:35.666Z,6.45
2023-04-16T00:55:47.137Z,5.60
2023-04-16T00:55:59.019Z,6.05
2023-04-16T00:56:10.512Z,6.57
2023-04-16T00:56:22.382Z,5.97
2023-04-16T00:56:35.951Z,6.25
2023-04-16T00:56:47.668Z,5.47
2023-04-16T00:56:59.846Z,5.40
2023-04-16T00:57:14.625Z,5.65
2023-04-16T00:57:27.138Z,7.38
2023-04-16T00:57:38.621Z,8.27
2023-04-16T00:57:50.069Z,8.70
2023-04-16T00:58:01.529Z,7.65
2023-04-16T00:58:13.030Z,6.68
2023-04-16T00:58:25.548Z,5.68
2023-04-16T00:58:36.998Z,5.47
2023-04-16T00:58:48.406Z,6.22
2023-04-16T00:58:59.912Z,6.68
2023-04-16T00:59:11.816Z,7.05
2023-04-16T00:59:23.430Z,7.53
2023-04-16T00:59:34.818Z,6.53
2023-04-16T00:59:46.488Z,6.25
2023-04-16T00:59:58.599Z,5.90
2023-04-16T01:00:10.620Z,5.60
2023-04-16T01:00:22.180Z,5.70
2023-04-16T01:00:33.651Z,5.68
2023-04-16T01:00:45.117Z,6.38
2023-04-16T01:00:56.633Z,6.82
2023-04-16T01:01:08.033Z,6.72
2023-04-16T01:01:19.632Z,6.00
2023-04-16T01:01:31.068Z,6.82
2023-04-16T01:01:42.604Z,6.97
2023-04-16T01:01:54.165Z,5.70
2023-04-16T01:02:07.267Z,5.65
2023-04-16T01:02:18.956Z,5.43
2023-04-16T01:02:30.541Z,5.38
2023-04-16T01:02:42.368Z,5.97
2023-04-16T01:02:54.642Z,5.97
2023-04-16T01:03:06.304Z,5.55
2023-04-16T01:03:17.958Z,6.20
2023-04-16T01:03:40.695Z,6.20
2023-04-16T01:03:52.402Z,7.35
2023-04-16T01:04:04.418Z,8.48
2023-04-16T01:04:16.087Z,7.32
2023-04-16T01:04:27.768Z,6.95
2023-04-16T01:04:39.502Z,7.70
2023-04-16T01:04:51.396Z,9.05
2023-04-16T01:05:04.472Z,8.00
2023-04-16T01:05:15.938Z,7.65
2023-04-16T01:05:28.191Z,6.68
2023-04-16T01:05:39.940Z,7.55
2023-04-16T01:05:52.162Z,8.80
2023-04-16T01:06:03.719Z,7.68
2023-04-16T01:06:17.028Z,8.02
2023-04-16T01:06:28.425Z,9.25
2023-04-16T01:06:39.846Z,10.50
2023-04-16T01:06:51.250Z,9.95
2023-04-16T01:07:02.750Z,9.63
2023-04-16T01:07:14.186Z,9.15
2023-04-16T01:07:25.603Z,9.65
2023-04-16T01:07:36.996Z,9.23
2023-04-16T01:07:48.381Z,8.95
2023-04-16T01:08:00.009Z,9.63
2023-04-16T01:08:18.864Z,9.68
2023-04-16T01:08:30.316Z,8.60
2023-04-16T01:08:41.996Z,9.68
2023-04-16T01:08:53.631Z,10.27
2023-04-16T01:09:05.777Z,9.57
2023-04-16T01:09:17.442Z,9.40
2023-04-16T01:09:28.826Z,10.30
2023-04-16T01:09:40.237Z,9.90
2023-04-16T01:09:51.654Z,8.82
2023-04-16T01:10:03.701Z,8.88
2023-04-16T01:10:15.229Z,10.35
2023-04-16T01:10:26.792Z,11.43
2023-04-16T01:10:38.212Z,10.32
2023-04-16T01:10:49.618Z,8.32
2023-04-16T01:11:01.460Z,9.43
2023-04-16T01:11:14.962Z,9.97
2023-04-16T01:11:27.533Z,9.75
2023-04-16T01:11:38.975Z,11.07
2023-04-16T01:11:50.393Z,9.98
2023-04-16T01:12:01.769Z,8.48
2023-04-16T01:12:13.421Z,8.70
2023-04-16T01:12:24.879Z,8.45
2023-04-16T01:12:36.300Z,9.02
2023-04-16T01:12:47.709Z,9.00
2023-04-16T01:12:59.158Z,7.90
2023-04-16T01:13:11.054Z,9.45
2023-04-16T01:13:22.455Z,10.23
2023-04-16T01:13:37.439Z,9.98
2023-04-16T01:13:48.850Z,10.00
2023-04-16T01:14:00.292Z,8.88
2023-04-16T01:14:11.688Z,7.95
2023-04-16T01:14:23.111Z,7.20
2023-04-16T01:14:34.663Z,7.00
2023-04-16T01:14:46.172Z,8.27
2023-04-16T01:14:57.693Z,7.97
2023-04-16T01:15:09.422Z,7.28
2023-04-16T01:15:20.839Z,6.88
2023-04-16T01:15:32.179Z,6.53
2023-04-16T01:15:43.597Z,6.47
2023-04-16T01:15:55.151Z,8.10
2023-04-16T01:16:08.201Z,10.00
2023-04-16T01:16:19.816Z,8.85
2023-04-16T01:16:32.470Z,7.88
2023-04-16T01:16:43.894Z,8.10
2023-04-16T01:16:55.237Z,8.65
2023-04-16T01:17:06.658Z,7.95
2023-04-16T01:17:18.091Z,7.35
2023-04-16T01:17:29.536Z,8.40
2023-04-16T01:17:41.132Z,8.57
2023-04-16T01:17:52.699Z,8.13
2023-04-16T01:18:14.001Z,6.10
2023-04-16T01:18:26.494Z,7.55
2023-04-16T01:18:38.633Z,7.35
2023-04-16T01:18:49.991Z,6.20
2023-04-16T01:19:01.327Z,6.13
2023-04-16T01:19:12.780Z,6.32
2023-04-16T01:19:24.215Z,7.45
2023-04-16T01:19:35.665Z,6.97
2023-04-16T01:19:47.108Z,6.57
2023-04-16T01:19:59.891Z,5.70
2023-04-16T01:20:11.550Z,5.93
2023-04-16T01:20:23.172Z,7.65
2023-04-16T01:20:36.311Z,9.30
2023-04-16T01:20:48.705Z,9.23
2023-04-16T01:21:00.372Z,8.68
2023-04-16T01:21:11.889Z,8.32
2023-04-16T01:21:23.228Z,8.73
2023-04-16T01:21:34.678Z,10.23
2023-04-16T01:21:46.106Z,11.18
2023-04-16T01:21:59.089Z,10.80
2023-04-16T01:22:10.487Z,8.70
2023-04-16T01:22:21.933Z,7.97
2023-04-16T01:22:33.313Z,6.82
2023-04-16T01:22:44.777Z,7.55
2023-04-16T01:22:56.124Z,7.10
2023-04-16T01:23:07.541Z,6.43
2023-04-16T01:23:19.665Z,6.10
2023-04-16T01:23:31.557Z,7.13
2023-04-16T01:23:43.032Z,7.82
2023-04-16T01:23:54.559Z,7.95
2023-04-16T01:24:06.161Z,8.15
2023-04-16T01:24:17.558Z,8.25
2023-04-16T01:24:28.921Z,8.18
2023-04-16T01:24:40.268Z,9.48
2023-04-16T01:24:51.766Z,9.88
2023-04-16T01:25:03.324Z,8.17
2023-04-16T01:25:15.260Z,8.85
2023-04-16T01:25:28.967Z,9.27
2023-04-16T01:25:40.435Z,8.70
2023-04-16T01:25:51.918Z,7.18
2023-04-16T01:26:03.348Z,9.10
2023-04-16T01:26:14.908Z,9.38
2023-04-16T01:26:27.305Z,9.60
2023-04-16T01:26:39.485Z,7.40
2023-04-16T01:26:50.905Z,7.03
2023-04-16T01:27:02.321Z,7.03
2023-04-16T01:27:13.756Z,6.80
2023-04-16T01:27:25.194Z,6.88
2023-04-16T01:27:36.638Z,7.70
2023-04-16T01:27:51.060Z,8.13
2023-04-16T01:28:02.486Z,7.90
2023-04-16T01:28:14.189Z,8.18
2023-04-16T01:28:27.188Z,10.95
2023-04-16T01:28:38.636Z,11.48
2023-04-16T01:28:50.490Z,9.60
2023-04-16T01:29:02.930Z,8.50
2023-04-16T01:29:14.359Z,7.47
2023-04-16T01:29:26.205Z,10.95
2023-04-16T01:29:37.559Z,11.77
2023-04-16T01:29:48.948Z,11.98
2023-04-16T01:30:00.325Z,9.10
2023-04-16T01:30:11.879Z,7.00
2023-04-16T01:30:23.262Z,6.77
2023-04-16T01:30:34.630Z,6.75
2023-04-16T01:30:46.025Z,7.13
2023-04-16T01:30:57.417Z,8.40
2023-04-16T01:31:08.976Z,8.02
2023-04-16T01:31:20.544Z,8.05
2023-04-16T01:31:32.040Z,6.97
2023-04-16T01:31:43.729Z,8.10
2023-04-16T01:31:55.257Z,9.55
2023-04-16T01:32:06.926Z,10.55
2023-04-16T01:32:18.308Z,8.50
2023-04-16T01:32:31.978Z,9.18
2023-04-16T01:32:43.474Z,9.02
2023-04-16T01:32:55.170Z,7.75
2023-04-16T01:33:06.798Z,10.68
2023-04-16T01:33:18.952Z,10.32
2023-04-16T01:33:30.392Z,12.32
2023-04-16T01:33:41.855Z,9.70
2023-04-16T01:33:53.322Z,10.65
2023-04-16T01:34:04.712Z,8.88
2023-04-16T01:34:16.128Z,8.60
2023-04-16T01:34:27.602Z,8.63
2023-04-16T01:34:38.993Z,9.25
2023-04-16T01:34:50.337Z,7.57
2023-04-16T01:35:01.771Z,7.07
2023-04-16T01:35:13.276Z,7.05
2023-04-16T01:35:25.201Z,8.52
2023-04-16T01:35:37.063Z,9.10
2023-04-16T01:35:48.574Z,9.20
2023-04-16T01:35:59.948Z,7.45
2023-04-16T01:36:11.323Z,8.75
2023-04-16T01:36:22.816Z,8.55
2023-04-16T01:36:34.214Z,8.32
2023-04-16T01:36:45.902Z,7.50
2023-04-16T01:36:57.266Z,8.35
2023-04-16T01:37:08.842Z,8.85
2023-04-16T01:37:20.243Z,8.77
2023-04-16T01:37:31.680Z,8.55
2023-04-16T01:37:43.101Z,8.10
2023-04-16T01:37:54.702Z,8.68
2023-04-16T01:38:07.177Z,9.85
2023-04-16T01:38:18.687Z,9.48
2023-04-16T01:38:30.201Z,8.85
2023-04-16T01:38:41.575Z,7.70
2023-04-16T01:38:53.052Z,7.65
2023-04-16T01:39:04.557Z,7.28
2023-04-16T01:39:15.904Z,6.68
2023-04-16T01:39:27.400Z,8.88
2023-04-16T01:39:38.927Z,9.90
2023-04-16T01:39:52.031Z,9.95
2023-04-16T01:40:03.628Z,8.07
2023-04-16T01:40:15.097Z,7.57
2023-04-16T01:40:26.477Z,7.95
2023-04-16T01:40:38.358Z,8.63
2023-04-16T01:40:49.823Z,9.77
2023-04-16T01:41:01.269Z,9.05
2023-04-16T01:41:12.660Z,8.73
2023-04-16T01:41:24.152Z,9.05
2023-04-16T01:41:35.600Z,9.15
2023-04-16T01:41:47.026Z,6.97
2023-04-16T01:41:58.494Z,7.43
2023-04-16T01:42:10.968Z,8.45
2023-04-16T01:42:22.398Z,8.90
2023-04-16T01:42:33.827Z,11.05
2023-04-16T01:42:45.233Z,11.85
2023-04-16T01:42:56.803Z,9.70
2023-04-16T01:43:08.194Z,7.80
2023-04-16T01:43:19.596Z,7.15
2023-04-16T01:43:32.077Z,6.93
2023-04-16T01:43:43.470Z,7.03
2023-04-16T01:43:54.891Z,7.10
2023-04-16T01:44:06.365Z,8.75
2023-04-16T01:44:17.750Z,9.68
2023-04-16T01:44:29.187Z,10.00
2023-04-16T01:44:40.543Z,9.55
2023-04-16T01:44:51.921Z,8.73
2023-04-16T01:45:04.173Z,8.80
2023-04-16T01:45:15.568Z,8.68
2023-04-16T01:45:26.929Z,8.20
2023-04-16T01:45:38.306Z,9.45
2023-04-16T01:45:49.739Z,10.05
2023-04-16T01:46:40.415Z,9.93
2023-04-16T01:46:51.882Z,6.75
2023-04-16T01:47:03.458Z,7.05
2023-04-16T01:47:14.882Z,8.10
2023-04-16T01:47:26.615Z,8.35
2023-04-16T01:47:38.228Z,6.97
2023-04-16T01:47:50.414Z,7.28
2023-04-16T01:48:03.069Z,7.90
2023-04-16T01:48:14.529Z,8.15
2023-04-16T01:48:26.062Z,8.65
2023-04-16T01:48:37.570Z,8.80
2023-04-16T01:48:48.925Z,8.43
2023-04-16T01:49:01.763Z,8.35
2023-04-16T01:49:13.419Z,9.32
2023-04-16T01:49:24.871Z,9.05
2023-04-16T01:49:36.595Z,9.50
2023-04-16T01:49:48.028Z,8.55
2023-04-16T01:50:00.497Z,8.77
2023-04-16T01:50:11.882Z,7.50
2023-04-16T01:50:23.556Z,7.95
2023-04-16T01:50:34.985Z,9.00
2023-04-16T01:50:46.391Z,9.98
2023-04-16T01:50:57.815Z,9.97
2023-04-16T01:51:09.208Z,8.38
2023-04-16T01:51:21.549Z,6.97
2023-04-16T01:51:33.225Z,6.47
2023-04-16T01:51:44.712Z,8.05
2023-04-16T01:51:56.164Z,8.57
2023-04-16T01:52:07.591Z,9.88
2023-04-16T01:52:19.040Z,8.98
2023-04-16T01:52:30.869Z,7.47
2023-04-16T01:52:42.262Z,6.95
2023-04-16T01:52:53.746Z,7.03
2023-04-16T01:53:05.291Z,7.72
2023-04-16T01:53:16.798Z,8.10
2023-04-16T01:53:28.188Z,7.97
2023-04-16T01:53:39.634Z,7.47
2023-04-16T01:53:51.138Z,6.88
2023-04-16T01:54:02.653Z,6.43
2023-04-16T01:54:14.252Z,6.00
2023-04-16T01:54:25.722Z,7.07
2023-04-16T01:54:37.104Z,8.05
2023-04-16T01:54:48.510Z,8.07
2023-04-16T01:54:59.971Z,8.40
2023-04-16T01:55:11.482Z,7.63
2023-04-16T01:55:25.293Z,8.52
2023-04-16T01:55:36.728Z,7.80
2023-04-16T01:55:48.228Z,7.82
2023-04-16T01:55:59.613Z,9.45
2023-04-16T01:56:11.106Z,9.43
2023-04-16T01:56:23.635Z,8.02
2023-04-16T01:56:35.072Z,6.80
2023-04-16T01:56:46.489Z,6.55
2023-04-16T01:56:57.896Z,6.88
2023-04-16T01:57:09.504Z,6.68
2023-04-16T01:57:20.983Z,6.45
2023-04-16T01:57:32.397Z,7.50
2023-04-16T01:57:43.796Z,8.23
2023-04-16T01:57:55.109Z,8.80
2023-04-16T01:58:06.496Z,7.88
2023-04-16T01:58:17.951Z,7.10
2023-04-16T01:58:30.362Z,5.82
2023-04-16T01:58:41.886Z,5.70
2023-04-16T01:58:53.506Z,6.53
2023-04-16T01:59:05.047Z,6.80
2023-04-16T01:59:16.387Z,7.38
2023-04-16T01:59:27.765Z,7.18
2023-04-16T01:59:39.281Z,7.03
2023-04-16T01:59:50.635Z,6.63
2023-04-16T02:00:03.235Z,6.70
2023-04-16T02:00:14.789Z,7.45
2023-04-16T02:00:26.296Z,6.40
2023-04-16T02:00:37.795Z,5.75
2023-04-16T02:00:49.255Z,5.70
2023-04-16T02:01:01.119Z,6.50
2023-04-16T02:01:13.519Z,7.10
2023-04-16T02:01:25.144Z,6.78
2023-04-16T02:01:36.670Z,6.85
2023-04-16T02:01:48.226Z,6.80
2023-04-16T02:02:14.584Z,8.30
2023-04-16T02:02:27.388Z,7.43
2023-04-16T02:02:40.729Z,6.28
2023-04-16T02:02:52.481Z,6.32
2023-04-16T02:03:04.227Z,6.07
2023-04-16T02:03:16.017Z,6.30
2023-04-16T02:03:27.801Z,7.38
2023-04-16T02:03:39.843Z,7.72
2023-04-16T02:03:52.028Z,9.27
2023-04-16T02:04:03.932Z,9.40
2023-04-16T02:04:15.402Z,9.48
2023-04-16T02:04:26.798Z,7.05
2023-04-16T02:04:39.750Z,6.22
2023-04-16T02:04:51.213Z,6.43
2023-04-16T02:05:03.694Z,8.05
2023-04-16T02:05:15.108Z,8.48
2023-04-16T02:05:26.602Z,7.43
2023-04-16T02:05:38.051Z,6.78
2023-04-16T02:05:49.504Z,6.85
2023-04-16T02:06:01.078Z,7.05
2023-04-16T02:06:12.533Z,6.32
2023-04-16T02:06:24.396Z,6.40
2023-04-16T02:06:35.805Z,7.82
2023-04-16T02:06:47.180Z,8.65
2023-04-16T02:06:58.612Z,6.75
2023-04-16T02:07:10.079Z,5.90
2023-04-16T02:07:21.563Z,5.90
2023-04-16T02:07:32.914Z,6.57
2023-04-16T02:07:44.286Z,7.05
2023-04-16T02:07:55.687Z,6.97
2023-04-16T02:08:07.010Z,6.85
2023-04-16T02:08:18.424Z,7.03
2023-04-16T02:08:29.953Z,6.00
2023-04-16T02:08:41.358Z,6.82
2023-04-16T02:08:52.802Z,7.55
2023-04-16T02:09:04.202Z,8.27
2023-04-16T02:09:15.580Z,7.85
2023-04-16T02:09:26.983Z,7.68
2023-04-16T02:09:40.128Z,6.93
2023-04-16T02:09:51.533Z,8.77
2023-04-16T02:10:03.043Z,8.60
2023-04-16T02:10:14.536Z,8.50
2023-04-16T02:10:25.981Z,6.50
2023-04-16T02:10:37.389Z,7.13
2023-04-16T02:10:50.412Z,6.97
2023-04-16T02:11:01.846Z,6.82
2023-04-16T02:11:13.208Z,6.97
2023-04-16T02:11:24.585Z,7.45
2023-04-16T02:11:36.017Z,7.07
2023-04-16T02:11:47.378Z,6.28
2023-04-16T02:11:58.825Z,7.00
2023-04-16T02:12:10.272Z,6.20
2023-04-16T02:12:21.691Z,5.90
2023-04-16T02:12:33.106Z,5.70
2023-04-16T02:12:44.584Z,6.30
2023-04-16T02:12:56.045Z,6.43
2023-04-16T02:13:08.492Z,7.80
2023-04-16T02:13:21.238Z,6.95
2023-04-16T02:13:32.661Z,7.35
2023-04-16T02:13:44.001Z,7.43
2023-04-16T02:13:55.489Z,8.13
2023-04-16T02:14:06.902Z,8.93
2023-04-16T02:14:18.310Z,7.90
2023-04-16T02:14:31.106Z,8.35
2023-04-16T02:14:42.988Z,7.68
2023-04-16T02:14:54.441Z,6.97
2023-04-16T02:15:06.412Z,6.95
2023-04-16T02:15:17.898Z,7.80
2023-04-16T02:15:29.237Z,7.20
2023-04-16T02:15:40.618Z,7.78
2023-04-16T02:15:52.662Z,7.70
2023-04-16T02:16:04.317Z,8.20
2023-04-16T02:16:15.798Z,8.10
2023-04-16T02:16:27.247Z,8.27
2023-04-16T02:16:38.715Z,8.38
2023-04-16T02:16:50.216Z,7.78
2023-04-16T02:17:01.791Z,7.32
2023-04-16T02:17:13.266Z,6.75
2023-04-16T02:17:24.735Z,6.88
2023-04-16T02:17:36.237Z,6.75
2023-04-16T02:17:47.780Z,6.35
2023-04-16T02:17:59.274Z,5.50
2023-04-16T02:18:10.614Z,6.20
2023-04-16T02:18:22.056Z,6.10
2023-04-16T02:18:33.460Z,6.28
2023-04-16T02:18:44.897Z,6.72
2023-04-16T02:18:56.304Z,8.05
2023-04-16T02:19:07.871Z,7.82
2023-04-16T02:19:19.376Z,6.65
2023-04-16T02:19:30.789Z,6.18
2023-04-16T02:19:42.202Z,6.18
2023-04-16T02:19:53.619Z,6.75
2023-04-16T02:20:05.550Z,7.68
2023-04-16T02:20:17.117Z,7.95
2023-04-16T02:20:28.541Z,8.57
2023-04-16T02:20:41.430Z,7.75
2023-04-16T02:20:52.820Z,8.32
2023-04-16T02:21:04.293Z,8.82
2023-04-16T02:21:15.643Z,7.07
2023-04-16T02:21:27.005Z,7.25
2023-04-16T02:21:38.501Z,10.25
2023-04-16T02:21:52.143Z,9.77
2023-04-16T02:22:03.999Z,6.47
2023-04-16T02:22:15.374Z,5.90
2023-04-16T02:22:26.862Z,7.57
2023-04-16T02:22:38.345Z,8.00
2023-04-16T02:22:49.764Z,8.27
2023-04-16T02:23:01.128Z,6.63
2023-04-16T02:23:13.644Z,6.43
2023-04-16T02:23:25.091Z,7.57
2023-04-16T02:23:36.550Z,9.23
2023-04-16T02:23:48.018Z,9.38
2023-04-16T02:23:59.460Z,7.85
2023-04-16T02:24:10.910Z,6.40
2023-04-16T02:24:22.347Z,5.97
2023-04-16T02:24:33.709Z,7.15
2023-04-16T02:24:45.118Z,7.28
2023-04-16T02:24:56.495Z,7.47
2023-04-16T02:25:08.201Z,8.35
2023-04-16T02:25:19.614Z,8.50
2023-04-16T02:25:31.037Z,8.05
2023-04-16T02:25:44.674Z,7.40
2023-04-16T02:25:56.068Z,7.82
2023-04-16T02:26:07.552Z,7.18
2023-04-16T02:26:19.002Z,6.70
2023-04-16T02:26:30.391Z,6.63
2023-04-16T02:26:41.773Z,8.35
2023-04-16T02:26:53.554Z,7.47
2023-04-16T02:27:04.962Z,7.20
2023-04-16T02:27:16.340Z,8.02
2023-04-16T02:27:27.756Z,8.00
2023-04-16T02:27:39.179Z,7.95
2023-04-16T02:27:50.617Z,7.20
2023-04-16T02:28:02.039Z,9.35
2023-04-16T02:28:15.508Z,9.18
2023-04-16T02:28:26.853Z,7.30
2023-04-16T02:28:38.247Z,6.40
2023-04-16T02:28:49.704Z,6.63
2023-04-16T02:29:02.295Z,9.00
2023-04-16T02:29:13.982Z,9.07
2023-04-16T02:29:25.410Z,9.98
2023-04-16T02:29:36.832Z,7.45
2023-04-16T02:29:48.210Z,9.50
2023-04-16T02:29:59.614Z,8.43
2023-04-16T02:30:11.543Z,9.52
2023-04-16T02:30:22.907Z,7.68
2023-04-16T02:30:36.205Z,7.05
2023-04-16T02:30:47.622Z,8.10
2023-04-16T02:30:59.072Z,7.57
2023-04-16T02:31:10.534Z,7.38
2023-04-16T02:31:22.025Z,7.00
2023-04-16T02:31:33.445Z,8.35
2023-04-16T02:31:45.173Z,8.15
2023-04-16T02:31:56.626Z,6.13
2023-04-16T02:32:08.281Z,6.63
2023-04-16T02:32:19.881Z,6.80
2023-04-16T02:32:31.469Z,7.10
2023-04-16T02:32:42.997Z,8.00
2023-04-16T02:32:54.525Z,8.35
2023-04-16T02:33:07.713Z,7.18
2023-04-16T02:33:19.129Z,5.78
2023-04-16T02:33:30.515Z,7.68
2023-04-16T02:33:41.927Z,6.97
2023-04-16T02:33:53.372Z,6.18
2023-04-16T02:34:05.662Z,5.72
2023-04-16T02:34:17.130Z,7.55
2023-04-16T02:34:28.648Z,8.15
2023-04-16T02:34:40.260Z,8.93
2023-04-16T02:34:51.738Z,8.82
2023-04-16T02:35:03.211Z,8.25
2023-04-16T02:35:14.576Z,9.15
2023-04-16T02:35:26.199Z,8.60
2023-04-16T02:35:39.257Z,7.75
2023-04-16T02:35:50.597Z,7.28
2023-04-16T02:36:02.016Z,7.03
2023-04-16T02:36:13.507Z,7.60
2023-04-16T02:36:25.076Z,8.70
2023-04-16T02:36:36.529Z,8.57
2023-04-16T02:36:47.964Z,7.25